createdAt,value
2022-09-20T00:01:07.670Z,2.07
2022-09-20T00:03:35.921Z,2.20
2022-09-20T00:06:04.593Z,2.07
2022-09-20T00:08:32.573Z,2.03
2022-09-20T00:11:03.068Z,2.33
2022-09-20T00:13:30.993Z,2.07
2022-09-20T00:15:58.726Z,2.27
2022-09-20T00:18:26.635Z,2.30
2022-09-20T00:20:54.508Z,2.60
2022-09-20T00:23:22.041Z,2.30
2022-09-20T00:25:56.913Z,2.70
2022-09-20T00:28:26.371Z,2.40
2022-09-20T00:30:54.756Z,2.27
2022-09-20T00:33:23.163Z,2.67
2022-09-20T00:35:50.068Z,2.23
2022-09-20T00:38:17.949Z,2.83
2022-09-20T00:40:45.977Z,2.50
2022-09-20T00:43:16.345Z,2.27
2022-09-20T00:45:46.048Z,2.53
2022-09-20T00:48:18.519Z,2.50
2022-09-20T00:50:48.861Z,2.27
2022-09-20T00:53:19.741Z,2.73
2022-09-20T00:55:49.500Z,2.83
2022-09-20T00:58:17.417Z,2.73
2022-09-20T01:00:46.966Z,2.40
2022-09-20T01:03:16.794Z,2.70
2022-09-20T01:05:45.545Z,3.53
2022-09-20T01:08:13.645Z,3.13
2022-09-20T01:10:41.209Z,3.00
2022-09-20T01:13:08.726Z,2.87
2022-09-20T01:15:37.647Z,3.37
2022-09-20T01:18:08.212Z,3.00
2022-09-20T01:20:38.829Z,2.77
2022-09-20T01:23:16.281Z,2.70
2022-09-20T01:26:12.549Z,2.67
2022-09-20T01:28:43.082Z,2.93
2022-09-20T01:31:16.937Z,2.80
2022-09-20T01:33:48.926Z,2.67
2022-09-20T01:36:20.043Z,2.70
2022-09-20T01:38:55.401Z,2.60
2022-09-20T01:41:25.712Z,2.40
2022-09-20T01:43:56.315Z,2.83
2022-09-20T01:46:31.177Z,2.80
2022-09-20T01:49:10.689Z,2.37
2022-09-20T01:52:22.192Z,2.63
2022-09-20T01:55:13.049Z,2.60
2022-09-20T01:57:56.970Z,2.67
2022-09-20T02:00:27.127Z,2.83
2022-09-20T02:03:31.412Z,2.70
2022-09-20T02:06:38.016Z,2.50
2022-09-20T02:09:33.665Z,2.20
2022-09-20T02:12:23.966Z,2.43
2022-09-20T02:14:58.728Z,2.93
2022-09-20T02:17:33.327Z,2.80
2022-09-20T02:20:09.999Z,2.80
2022-09-20T02:22:45.332Z,2.57
2022-09-20T02:25:22.214Z,2.60
2022-09-20T02:28:00.466Z,2.50
2022-09-20T02:30:38.285Z,2.60
2022-09-20T02:33:23.899Z,3.53
2022-09-20T02:36:03.300Z,3.00
2022-09-20T02:38:48.364Z,2.93
2022-09-20T02:41:37.778Z,3.17
2022-09-20T02:44:08.984Z,2.33
2022-09-20T02:46:40.892Z,2.90
2022-09-20T02:49:13.229Z,3.03
2022-09-20T02:51:42.516Z,2.73
2022-09-20T02:54:30.610Z,2.40
2022-09-20T02:57:02.234Z,2.70
2022-09-20T02:59:34.585Z,2.70
2022-09-20T03:02:12.434Z,2.60
2022-09-20T03:04:50.137Z,2.90
2022-09-20T03:07:23.074Z,3.07
2022-09-20T03:09:57.777Z,2.53
2022-09-20T03:12:34.224Z,2.40
2022-09-20T03:15:20.464Z,2.67
2022-09-20T03:17:52.678Z,2.37
2022-09-20T03:20:32.437Z,3.00
2022-09-20T03:23:08.473Z,2.70
2022-09-20T03:25:52.984Z,2.67
2022-09-20T03:28:40.998Z,2.63
2022-09-20T03:31:17.926Z,2.40
2022-09-20T03:33:51.537Z,2.53
2022-09-20T03:36:49.719Z,2.57
2022-09-20T03:39:49.487Z,2.27
2022-09-20T03:42:19.514Z,2.33
2022-09-20T03:45:13.544Z,2.87
2022-09-20T03:48:22.738Z,2.27
2022-09-20T03:51:02.737Z,2.40
2022-09-20T03:53:55.664Z,2.50
2022-09-20T03:56:58.666Z,2.03
2022-09-20T03:59:37.703Z,2.73
2022-09-20T04:02:32.725Z,2.70
2022-09-20T04:05:02.678Z,2.57
2022-09-20T04:07:35.493Z,2.10
2022-09-20T04:10:30.417Z,2.80
2022-09-20T04:13:11.141Z,2.90
2022-09-20T04:15:45.568Z,2.87
2022-09-20T04:18:21.327Z,4.30
2022-09-20T04:20:51.511Z,4.27
2022-09-20T04:23:30.886Z,3.20
2022-09-20T04:26:01.820Z,2.77
2022-09-20T04:28:33.373Z,2.70
2022-09-20T04:31:05.864Z,3.20
2022-09-20T04:33:37.481Z,3.50
2022-09-20T04:36:31.496Z,3.30
2022-09-20T04:39:07.529Z,3.00
2022-09-20T04:42:04.629Z,3.40
2022-09-20T04:45:08.280Z,3.03
2022-09-20T04:48:20.549Z,3.17
2022-09-20T04:51:18.829Z,3.20
2022-09-20T04:54:25.433Z,3.13
2022-09-20T04:57:10.473Z,4.13
2022-09-20T04:59:48.818Z,3.60
2022-09-20T05:02:31.250Z,3.30
2022-09-20T05:05:25.829Z,3.60
2022-09-20T05:08:17.883Z,3.37
2022-09-20T05:11:17.158Z,3.30
2022-09-20T05:13:58.478Z,3.20
2022-09-20T05:16:32.557Z,3.70
2022-09-20T05:19:14.366Z,3.20
2022-09-20T05:21:50.998Z,3.90
2022-09-20T05:24:27.999Z,3.70
2022-09-20T05:27:06.241Z,4.50
2022-09-20T05:29:40.427Z,3.80
2022-09-20T05:32:12.849Z,3.70
2022-09-20T05:34:45.355Z,4.23
2022-09-20T05:37:21.845Z,3.80
2022-09-20T05:39:53.709Z,3.97
2022-09-20T05:42:28.649Z,4.27
2022-09-20T05:45:05.585Z,4.07
2022-09-20T05:47:38.008Z,3.80
2022-09-20T05:50:29.623Z,4.53
2022-09-20T05:53:00.356Z,4.37
2022-09-20T05:55:53.821Z,4.23
2022-09-20T05:58:46.148Z,4.67
2022-09-20T06:01:18.787Z,4.50
2022-09-20T06:03:54.341Z,4.53
2022-09-20T06:06:27.074Z,4.83
2022-09-20T06:09:33.367Z,4.43
2022-09-20T06:12:16.178Z,4.80
2022-09-20T06:14:48.589Z,4.80
2022-09-20T06:17:26.503Z,4.57
2022-09-20T06:20:06.137Z,4.87
2022-09-20T06:22:37.784Z,4.60
2022-09-20T06:25:14.602Z,4.77
2022-09-20T06:27:44.953Z,4.83
2022-09-20T06:30:17.065Z,4.63
2022-09-20T06:32:56.390Z,4.87
2022-09-20T06:35:25.976Z,4.90
2022-09-20T06:38:13.951Z,4.57
2022-09-20T06:41:01.958Z,5.07
2022-09-20T06:43:30.934Z,4.67
2022-09-20T06:45:58.520Z,4.90
2022-09-20T06:48:29.773Z,4.37
2022-09-20T06:50:57.398Z,3.93
2022-09-20T06:53:28.130Z,4.17
2022-09-20T06:55:55.730Z,4.20
2022-09-20T06:58:23.317Z,3.80
2022-09-20T07:00:51.010Z,4.17
2022-09-20T07:03:19.482Z,3.67
2022-09-20T07:05:48.659Z,4.60
2022-09-20T07:08:17.221Z,4.63
2022-09-20T07:10:45.101Z,3.77
2022-09-20T07:13:13.774Z,4.47
2022-09-20T07:15:41.377Z,4.57
2022-09-20T07:18:09.225Z,3.93
2022-09-20T07:20:37.062Z,4.23
2022-09-20T07:23:06.065Z,3.97
2022-09-20T07:25:34.226Z,4.30
2022-09-20T07:28:01.859Z,3.93
2022-09-20T07:30:29.624Z,4.10
2022-09-20T07:32:57.185Z,4.23
2022-09-20T07:35:25.141Z,3.43
2022-09-20T07:37:57.943Z,3.53
2022-09-20T07:40:27.354Z,4.23
2022-09-20T07:42:57.292Z,3.13
2022-09-20T07:45:25.227Z,3.47
2022-09-20T07:47:54.667Z,3.70
2022-09-20T07:50:22.460Z,3.97
2022-09-20T07:52:50.031Z,3.37
2022-09-20T07:55:17.989Z,3.03
2022-09-20T07:57:46.887Z,3.50
2022-09-20T08:00:14.738Z,3.30
2022-09-20T08:02:42.308Z,3.70
2022-09-20T08:05:10.227Z,3.20
2022-09-20T08:07:38.549Z,2.87
2022-09-20T08:10:06.981Z,3.57
2022-09-20T08:15:25.855Z,3.10
2022-09-20T08:17:53.507Z,3.40
2022-09-20T08:20:21.041Z,2.67
2022-09-20T08:23:01.175Z,2.30
2022-09-20T08:25:36.592Z,2.70
2022-09-20T08:28:04.302Z,2.23
2022-09-20T08:30:33.276Z,2.70
2022-09-20T08:33:00.792Z,2.50
2022-09-20T08:35:29.468Z,2.30
2022-09-20T08:37:57.543Z,2.40
2022-09-20T08:40:45.104Z,2.27
2022-09-20T08:43:13.194Z,2.00
2022-09-20T08:45:42.336Z,2.47
2022-09-20T08:48:14.674Z,2.70
2022-09-20T08:50:43.004Z,2.30
2022-09-20T08:53:13.578Z,2.17
2022-09-20T08:55:41.640Z,2.93
2022-09-20T08:58:10.755Z,2.07
2022-09-20T09:00:40.295Z,2.33
2022-09-20T09:03:13.171Z,2.43
2022-09-20T09:05:44.696Z,2.63
2022-09-20T09:08:16.389Z,2.77
2022-09-20T09:10:47.233Z,2.50
2022-09-20T09:13:21.829Z,2.17
2022-09-20T09:15:54.220Z,2.30
2022-09-20T09:18:23.208Z,2.30
2022-09-20T09:20:51.605Z,2.30
2022-09-20T09:23:26.253Z,1.90
2022-09-20T09:25:54.497Z,2.83
2022-09-20T09:28:24.978Z,2.27
2022-09-20T09:30:52.735Z,2.10
2022-09-20T09:33:27.824Z,2.70
2022-09-20T09:36:00.187Z,1.70
2022-09-20T09:38:30.182Z,1.43
2022-09-20T09:40:59.687Z,1.83
2022-09-20T09:43:30.315Z,2.20
2022-09-20T09:46:18.236Z,1.80
2022-09-20T09:48:50.120Z,1.40
2022-09-20T09:51:19.657Z,1.50
2022-09-20T09:53:49.328Z,2.00
2022-09-20T09:56:24.986Z,1.57
2022-09-20T09:59:05.366Z,1.33
2022-09-20T10:01:39.494Z,1.50
2022-09-20T10:04:13.531Z,1.30
2022-09-20T10:06:49.311Z,1.40
2022-09-20T10:09:27.846Z,1.97
2022-09-20T10:12:08.401Z,1.40
2022-09-20T10:14:45.509Z,0.93
2022-09-20T10:17:26.546Z,1.20
2022-09-20T10:20:07.432Z,1.07
2022-09-20T10:23:06.698Z,1.03
2022-09-20T10:25:39.929Z,1.43
2022-09-20T10:28:18.225Z,1.57
2022-09-20T10:30:57.274Z,1.20
2022-09-20T10:33:29.609Z,1.03
2022-09-20T10:36:06.424Z,1.27
2022-09-20T10:38:38.077Z,1.50
2022-09-20T10:41:33.713Z,1.70
2022-09-20T10:44:09.995Z,1.30
2022-09-20T10:46:47.316Z,1.60
2022-09-20T10:49:24.051Z,1.60
2022-09-20T10:52:02.633Z,1.30
2022-09-20T10:54:40.209Z,1.47
2022-09-20T10:57:26.030Z,1.20
2022-09-20T10:59:59.849Z,1.53
2022-09-20T11:02:45.127Z,1.50
2022-09-20T11:05:21.662Z,2.07
2022-09-20T11:07:59.560Z,1.63
2022-09-20T11:10:30.771Z,1.40
2022-09-20T11:13:01.689Z,1.30
2022-09-20T11:15:32.365Z,1.30
2022-09-20T11:18:04.569Z,1.10
2022-09-20T11:20:37.268Z,1.17
2022-09-20T11:23:11.507Z,1.77
2022-09-20T11:25:43.554Z,1.33
2022-09-20T11:28:14.389Z,1.00
2022-09-20T11:30:47.310Z,1.00
2022-09-20T11:33:19.275Z,1.27
2022-09-20T11:35:49.286Z,0.70
2022-09-20T11:38:23.158Z,1.00
2022-09-20T11:40:54.174Z,0.80
2022-09-20T11:43:24.027Z,0.90
2022-09-20T11:45:55.857Z,0.80
2022-09-20T11:48:26.754Z,0.70
2022-09-20T11:51:15.474Z,0.90
2022-09-20T11:53:55.917Z,0.80
2022-09-20T11:56:24.829Z,1.10
2022-09-20T11:58:55.095Z,1.10
2022-09-20T12:01:28.459Z,0.90
2022-09-20T12:04:20.584Z,1.00
2022-09-20T12:06:45.596Z,0.90
2022-09-20T12:09:25.921Z,0.90
2022-09-20T12:11:53.777Z,0.93
2022-09-20T12:14:24.358Z,1.07
2022-09-20T12:16:52.690Z,1.30
2022-09-20T12:19:39.093Z,1.10
2022-09-20T12:22:29.516Z,1.10
2022-09-20T12:25:34.317Z,1.00
2022-09-20T12:28:03.413Z,1.20
2022-09-20T12:30:32.139Z,1.30
2022-09-20T12:33:02.227Z,1.50
2022-09-20T12:36:26.439Z,1.40
2022-09-20T12:39:00.527Z,1.83
2022-09-20T12:41:29.279Z,2.43
2022-09-20T12:44:05.277Z,2.10
2022-09-20T12:46:42.188Z,1.90
2022-09-20T12:49:55.101Z,2.10
2022-09-20T12:52:41.999Z,1.30
2022-09-20T12:55:11.252Z,1.70
2022-09-20T12:57:39.402Z,1.93
2022-09-20T13:00:24.539Z,1.83
2022-09-20T13:03:00.357Z,1.13
2022-09-20T13:05:33.751Z,0.93
2022-09-20T13:08:04.018Z,1.30
2022-09-20T13:10:35.884Z,1.10
2022-09-20T13:13:08.721Z,1.10
2022-09-20T13:15:39.277Z,1.47
2022-09-20T13:18:06.945Z,1.17
2022-09-20T13:20:35.587Z,1.20
2022-09-20T13:23:04.957Z,1.37
2022-09-20T13:25:34.433Z,1.20
2022-09-20T13:28:07.761Z,0.90
2022-09-20T13:30:37.131Z,1.13
2022-09-20T13:33:23.155Z,1.20
2022-09-20T13:35:54.347Z,1.30
2022-09-20T13:38:29.966Z,1.20
2022-09-20T13:41:03.001Z,0.90
2022-09-20T13:43:33.325Z,1.00
2022-09-20T13:46:10.351Z,1.03
2022-09-20T13:48:38.864Z,0.90
2022-09-20T13:51:18.372Z,1.07
2022-09-20T13:53:46.707Z,1.33
2022-09-20T13:56:20.642Z,1.10
2022-09-20T13:58:49.450Z,1.63
2022-09-20T14:01:28.672Z,1.37
2022-09-20T14:04:09.265Z,1.10
2022-09-20T14:06:37.544Z,1.03
2022-09-20T14:09:11.117Z,1.10
2022-09-20T14:11:39.953Z,1.47
2022-09-20T14:14:07.843Z,1.10
2022-09-20T14:16:40.147Z,1.33
2022-09-20T14:19:08.771Z,1.20
2022-09-20T14:21:37.689Z,0.93
2022-09-20T14:24:10.024Z,1.10
2022-09-20T14:26:39.386Z,1.50
2022-09-20T14:29:29.108Z,1.00
2022-09-20T14:31:59.006Z,1.50
2022-09-20T14:34:26.793Z,1.27
2022-09-20T14:37:05.106Z,1.23
2022-09-20T14:39:33.631Z,1.03
2022-09-20T14:42:01.205Z,1.27
2022-09-20T14:44:32.742Z,1.20
2022-09-20T14:47:14.825Z,1.40
2022-09-20T14:49:44.748Z,1.00
2022-09-20T14:52:35.555Z,1.33
2022-09-20T14:55:05.812Z,1.07
2022-09-20T14:57:33.508Z,1.20
2022-09-20T15:00:07.027Z,1.00
2022-09-20T15:02:36.883Z,1.03
2022-09-20T15:05:05.062Z,1.07
2022-09-20T15:07:33.026Z,1.07
2022-09-20T15:10:01.394Z,1.20
2022-09-20T15:12:29.285Z,0.80
2022-09-20T15:14:56.867Z,1.23
2022-09-20T15:17:24.451Z,0.70
2022-09-20T15:19:53.668Z,0.80
2022-09-20T15:22:21.420Z,1.00
2022-09-20T15:24:49.316Z,1.47
2022-09-20T15:27:17.138Z,1.00
2022-09-20T15:29:44.835Z,1.03
2022-09-20T15:32:12.596Z,1.20
2022-09-20T15:34:40.522Z,0.90
2022-09-20T15:37:09.337Z,0.87
2022-09-20T15:39:36.925Z,0.90
2022-09-20T15:42:05.788Z,1.10
2022-09-20T15:44:33.644Z,1.27
2022-09-20T15:47:03.024Z,1.57
2022-09-20T15:49:31.029Z,1.27
2022-09-20T15:51:58.842Z,1.20
2022-09-20T15:54:27.785Z,1.80
2022-09-20T15:56:55.343Z,2.00
2022-09-20T15:59:23.327Z,2.10
2022-09-20T16:01:51.605Z,2.57
2022-09-20T16:04:20.772Z,1.90
2022-09-20T16:06:49.778Z,1.60
2022-09-20T16:09:18.313Z,1.30
2022-09-20T16:11:48.082Z,1.10
2022-09-20T16:14:16.329Z,1.47
2022-09-20T16:16:43.991Z,1.50
2022-09-20T16:19:20.689Z,1.13
2022-09-20T16:21:53.771Z,1.20
2022-09-20T16:24:26.004Z,2.30
2022-09-20T16:26:55.667Z,1.60
2022-09-20T16:29:25.995Z,1.50
2022-09-20T16:31:54.728Z,1.73
2022-09-20T16:34:25.446Z,3.30
2022-09-20T16:36:55.539Z,1.63
2022-09-20T16:39:26.125Z,1.30
2022-09-20T16:41:57.079Z,1.23
2022-09-20T16:44:25.554Z,1.23
2022-09-20T16:46:53.167Z,1.20
2022-09-20T16:49:20.729Z,1.10
2022-09-20T16:51:48.307Z,1.40
2022-09-20T16:54:17.212Z,2.00
2022-09-20T16:56:46.771Z,2.37
2022-09-20T16:59:17.490Z,1.73
2022-09-20T17:01:46.095Z,1.70
2022-09-20T17:04:14.939Z,3.30
2022-09-20T17:06:43.799Z,2.63
2022-09-20T17:09:11.586Z,2.33
2022-09-20T17:11:40.558Z,1.93
2022-09-20T17:14:09.087Z,2.23
2022-09-20T17:16:40.248Z,1.90
2022-09-20T17:19:11.089Z,1.50
2022-09-20T17:21:43.439Z,1.77
2022-09-20T17:24:11.638Z,2.80
2022-09-20T17:26:40.818Z,2.43
2022-09-20T17:29:11.058Z,2.97
2022-09-20T17:31:43.153Z,2.07
2022-09-20T17:34:13.789Z,1.90
2022-09-20T17:36:43.196Z,1.70
2022-09-20T17:39:12.796Z,1.93
2022-09-20T17:41:41.709Z,1.83
2022-09-20T17:44:12.280Z,5.17
2022-09-20T17:46:42.678Z,3.73
2022-09-20T17:49:11.982Z,4.20
2022-09-20T17:51:42.014Z,3.47
2022-09-20T17:54:13.462Z,2.60
2022-09-20T17:56:42.567Z,3.07
2022-09-20T17:59:11.060Z,2.70
2022-09-20T18:01:39.873Z,3.57
2022-09-20T18:04:10.084Z,3.10
2022-09-20T18:06:38.621Z,2.60
2022-09-20T18:09:08.322Z,2.80
2022-09-20T18:11:37.548Z,2.50
2022-09-20T18:14:08.200Z,2.33
2022-09-20T18:16:37.605Z,2.40
2022-09-20T18:19:05.781Z,3.03
2022-09-20T18:21:36.708Z,3.70
2022-09-20T18:24:06.998Z,3.50
2022-09-20T18:26:35.398Z,2.90
2022-09-20T18:29:05.662Z,2.70
2022-09-20T18:31:36.250Z,2.87
2022-09-20T18:34:05.602Z,3.73
2022-09-20T18:36:36.698Z,2.27
2022-09-20T18:39:04.800Z,2.67
2022-09-20T18:41:34.788Z,2.93
2022-09-20T18:44:07.058Z,3.30
2022-09-20T18:46:38.191Z,3.20
2022-09-20T18:49:09.433Z,2.90
2022-09-20T18:51:40.412Z,2.97
2022-09-20T18:54:09.910Z,3.67
2022-09-20T18:56:38.963Z,3.00
2022-09-20T18:59:08.594Z,2.63
2022-09-20T19:02:06.878Z,2.83
2022-09-20T19:04:57.715Z,2.70
2022-09-20T19:07:33.604Z,2.37
2022-09-20T19:10:07.210Z,5.20
2022-09-20T19:12:39.489Z,2.97
2022-09-20T19:15:21.377Z,3.40
2022-09-20T19:17:58.421Z,3.30
2022-09-20T19:20:32.582Z,3.80
2022-09-20T19:23:11.700Z,3.33
2022-09-20T19:25:43.945Z,3.10
2022-09-20T19:28:12.941Z,2.10
2022-09-20T19:30:42.333Z,2.33
2022-09-20T19:33:15.836Z,2.20
2022-09-20T19:35:49.375Z,1.87
2022-09-20T19:38:31.860Z,2.17
2022-09-20T19:41:05.079Z,2.77
2022-09-20T19:43:45.663Z,2.83
2022-09-20T19:46:26.259Z,3.00
2022-09-20T19:49:02.416Z,3.30
2022-09-20T19:51:34.089Z,3.20
2022-09-20T19:54:03.450Z,2.97
2022-09-20T19:56:47.580Z,3.33
2022-09-20T19:59:17.306Z,3.30
2022-09-20T20:01:45.792Z,2.70
2022-09-20T20:04:13.956Z,2.27
2022-09-20T20:06:45.269Z,2.80
2022-09-20T20:09:20.014Z,2.50
2022-09-20T20:11:52.666Z,2.57
2022-09-20T20:14:24.067Z,2.37
2022-09-20T20:17:01.738Z,3.60
2022-09-20T20:19:48.514Z,2.33
2022-09-20T20:22:28.322Z,2.13
2022-09-20T20:24:57.697Z,2.53
2022-09-20T20:27:28.149Z,2.57
2022-09-20T20:29:56.335Z,1.90
2022-09-20T20:32:24.608Z,2.57
2022-09-20T20:34:52.343Z,1.83
2022-09-20T20:37:24.254Z,2.00
2022-09-20T20:39:52.119Z,2.00
2022-09-20T20:42:21.506Z,2.10
2022-09-20T20:44:49.057Z,2.33
2022-09-20T20:47:16.854Z,2.03
2022-09-20T20:49:44.382Z,2.37
2022-09-20T20:52:12.248Z,1.90
2022-09-20T20:54:39.826Z,2.20
2022-09-20T20:57:07.444Z,3.03
2022-09-20T20:59:36.464Z,1.67
2022-09-20T21:02:07.792Z,2.00
2022-09-20T21:04:36.912Z,1.93
2022-09-20T21:07:04.900Z,1.93
2022-09-20T21:09:32.956Z,2.03
2022-09-20T21:12:00.653Z,1.70
2022-09-20T21:14:28.349Z,1.60
2022-09-20T21:16:57.267Z,1.70
2022-09-20T21:19:25.400Z,1.90
2022-09-20T21:21:52.915Z,2.00
2022-09-20T21:24:21.185Z,3.60
2022-09-20T21:26:48.738Z,2.90
2022-09-20T21:29:16.918Z,2.70
2022-09-20T21:31:45.811Z,3.37
2022-09-20T21:34:16.493Z,3.07
2022-09-20T21:36:45.016Z,3.13
2022-09-20T21:39:13.089Z,3.30
2022-09-20T21:41:40.854Z,3.00
2022-09-20T21:44:10.843Z,2.97
2022-09-20T21:46:40.311Z,2.77
2022-09-20T21:49:09.525Z,2.53
2022-09-20T21:51:39.579Z,2.60
2022-09-20T21:54:07.363Z,2.43
2022-09-20T21:56:36.778Z,2.10
2022-09-20T21:59:06.014Z,2.37
2022-09-20T22:01:34.827Z,1.77
2022-09-20T22:04:06.914Z,2.30
2022-09-20T22:06:35.608Z,2.17
2022-09-20T22:09:06.099Z,2.57
2022-09-20T22:11:35.918Z,2.27
2022-09-20T22:14:03.894Z,3.13
2022-09-20T22:16:33.197Z,3.30
2022-09-20T22:19:01.462Z,3.30
2022-09-20T22:21:30.606Z,3.07
2022-09-20T22:24:00.095Z,2.67
2022-09-20T22:26:31.030Z,2.73
2022-09-20T22:28:59.379Z,2.83
2022-09-20T22:31:28.647Z,2.40
2022-09-20T22:33:57.671Z,2.73
2022-09-20T22:36:27.075Z,2.73
2022-09-20T22:38:54.995Z,2.43
2022-09-20T22:41:22.924Z,2.80
2022-09-20T22:43:51.907Z,2.60
2022-09-20T22:46:20.944Z,2.47
2022-09-20T22:48:48.774Z,2.77
2022-09-20T22:51:18.307Z,2.60
2022-09-20T22:53:47.187Z,2.40
2022-09-20T22:56:16.442Z,2.77
2022-09-20T22:58:45.608Z,2.80
2022-09-20T23:01:16.365Z,2.53
2022-09-20T23:03:45.794Z,2.93
2022-09-20T23:06:15.265Z,2.83
2022-09-20T23:08:43.079Z,2.50
2022-09-20T23:11:10.799Z,2.57
2022-09-20T23:13:38.804Z,2.60
2022-09-20T23:16:15.744Z,2.67
2022-09-20T23:18:43.839Z,2.30
2022-09-20T23:21:11.410Z,2.90
2022-09-20T23:23:39.795Z,2.70
2022-09-20T23:26:08.588Z,2.43
2022-09-20T23:28:36.762Z,2.37
2022-09-20T23:31:05.681Z,3.00
2022-09-20T23:33:34.987Z,2.60
2022-09-20T23:36:06.429Z,2.83
2022-09-20T23:38:34.074Z,2.80
2022-09-20T23:41:03.844Z,3.03
2022-09-20T23:43:31.726Z,2.80
2022-09-20T23:45:59.337Z,3.17
2022-09-20T23:48:27.610Z,2.90
2022-09-20T23:50:56.954Z,2.60
2022-09-20T23:53:25.047Z,2.60
2022-09-20T23:55:52.636Z,2.47
2022-09-20T23:58:20.245Z,2.67
